sensor_id;sensor_type;location;lat;lon;timestamp;pressure;altitude;pressure_sealevel;temperature;humidity
20228;BME280;12195;55.790;37.572;2023-03-21T00:02:15;99385.88;;;5.95;52.18
20228;BME280;12195;55.790;37.572;2023-03-21T00:04:47;99380.72;;;5.94;51.94
20228;BME280;12195;55.790;37.572;2023-03-21T00:07:21;99383.39;;;5.92;52.33
20228;BME280;12195;55.790;37.572;2023-03-21T00:09:53;99372.14;;;5.92;52.30
20228;BME280;12195;55.790;37.572;2023-03-21T00:12:27;99368.67;;;5.91;52.21
20228;BME280;12195;55.790;37.572;2023-03-21T00:15:00;99371.22;;;5.93;52.44
20228;BME280;12195;55.790;37.572;2023-03-21T00:17:34;99369.48;;;5.93;52.40
20228;BME280;12195;55.790;37.572;2023-03-21T00:20:09;99349.84;;;5.85;52.26
20228;BME280;12195;55.790;37.572;2023-03-21T00:22:46;99349.84;;;5.85;52.26
20228;BME280;12195;55.790;37.572;2023-03-21T00:25:36;99359.00;;;5.95;52.11
20228;BME280;12195;55.790;37.572;2023-03-21T00:28:09;99359.82;;;5.95;52.03
20228;BME280;12195;55.790;37.572;2023-03-21T00:30:40;99353.05;;;5.91;51.90
20228;BME280;12195;55.790;37.572;2023-03-21T00:33:12;99359.17;;;5.90;52.14
20228;BME280;12195;55.790;37.572;2023-03-21T00:35:48;99349.67;;;5.89;52.31
20228;BME280;12195;55.790;37.572;2023-03-21T00:38:24;99341.05;;;5.87;52.35
20228;BME280;12195;55.790;37.572;2023-03-21T00:40:56;99341.91;;;5.88;52.21
20228;BME280;12195;55.790;37.572;2023-03-21T00:43:30;99346.27;;;5.87;52.51
20228;BME280;12195;55.790;37.572;2023-03-21T00:46:03;99338.39;;;5.89;52.55
20228;BME280;12195;55.790;37.572;2023-03-21T00:48:35;99334.04;;;5.89;52.62
20228;BME280;12195;55.790;37.572;2023-03-21T00:51:18;99333.98;;;5.91;52.58
20228;BME280;12195;55.790;37.572;2023-03-21T00:53:56;99335.66;;;5.92;52.45
20228;BME280;12195;55.790;37.572;2023-03-21T00:56:30;99333.00;;;5.93;52.38
20228;BME280;12195;55.790;37.572;2023-03-21T00:59:02;99331.28;;;5.92;52.20
20228;BME280;12195;55.790;37.572;2023-03-21T01:01:34;99330.45;;;5.92;52.25
20228;BME280;12195;55.790;37.572;2023-03-21T01:04:08;99333.06;;;5.92;52.21
20228;BME280;12195;55.790;37.572;2023-03-21T01:06:43;99331.28;;;5.92;52.13
20228;BME280;12195;55.790;37.572;2023-03-21T01:09:18;99329.59;;;5.91;52.06
20228;BME280;12195;55.790;37.572;2023-03-21T01:11:50;99323.62;;;5.89;52.30
20228;BME280;12195;55.790;37.572;2023-03-21T01:14:22;99330.63;;;5.87;52.29
20228;BME280;12195;55.790;37.572;2023-03-21T01:16:55;99317.67;;;5.86;52.47
20228;BME280;12195;55.790;37.572;2023-03-21T01:19:27;99327.20;;;5.87;52.55
20228;BME280;12195;55.790;37.572;2023-03-21T01:22:02;99317.61;;;5.87;52.53
20228;BME280;12195;55.790;37.572;2023-03-21T01:24:34;99316.84;;;5.85;52.80
20228;BME280;12195;55.790;37.572;2023-03-21T01:27:08;99307.31;;;5.84;52.73
20228;BME280;12195;55.790;37.572;2023-03-21T01:29:40;99303.02;;;5.83;52.81
20228;BME280;12195;55.790;37.572;2023-03-21T01:32:12;99302.19;;;5.83;52.78
20228;BME280;12195;55.790;37.572;2023-03-21T01:34:44;99302.25;;;5.81;52.92
20228;BME280;12195;55.790;37.572;2023-03-21T01:37:16;99301.39;;;5.81;52.85
20228;BME280;12195;55.790;37.572;2023-03-21T01:39:51;99302.34;;;5.78;53.00
20228;BME280;12195;55.790;37.572;2023-03-21T01:42:24;99304.02;;;5.79;53.11
20228;BME280;12195;55.790;37.572;2023-03-21T01:45:04;99299.67;;;5.79;53.04
20228;BME280;12195;55.790;37.572;2023-03-21T01:47:38;99298.81;;;5.79;53.06
20228;BME280;12195;55.790;37.572;2023-03-21T01:50:18;99301.42;;;5.79;52.85
20228;BME280;12195;55.790;37.572;2023-03-21T01:52:57;99298.05;;;5.77;53.17
20228;BME280;12195;55.790;37.572;2023-03-21T01:55:31;99298.05;;;5.77;53.17
20228;BME280;12195;55.790;37.572;2023-03-21T01:58:11;99296.27;;;5.77;53.15
20228;BME280;12195;55.790;37.572;2023-03-21T02:00:48;99297.19;;;5.76;53.16
20228;BME280;12195;55.790;37.572;2023-03-21T02:03:29;99295.45;;;5.77;53.09
20228;BME280;12195;55.790;37.572;2023-03-21T02:06:25;99285.85;;;5.77;53.03
20228;BME280;12195;55.790;37.572;2023-03-21T02:09:04;99295.45;;;5.77;52.94
20228;BME280;12195;55.790;37.572;2023-03-21T02:11:36;99283.34;;;5.76;52.87
20228;BME280;12195;55.790;37.572;2023-03-21T02:14:11;99284.23;;;5.75;53.03
20228;BME280;12195;55.790;37.572;2023-03-21T02:17:13;99284.23;;;5.75;52.99
20228;BME280;12195;55.790;37.572;2023-03-21T02:28:12;99276.41;;;5.75;52.95
20228;BME280;12195;55.790;37.572;2023-03-21T02:31:03;99279.81;;;5.77;52.34
20228;BME280;12195;55.790;37.572;2023-03-21T02:36:56;99272.83;;;5.77;52.52
20228;BME280;12195;55.790;37.572;2023-03-21T02:42:33;99261.98;;;5.88;51.60
20228;BME280;12195;55.790;37.572;2023-03-21T02:45:10;99265.62;;;5.84;52.03
20228;BME280;12195;55.790;37.572;2023-03-21T02:47:48;99262.33;;;5.81;51.85
20228;BME280;12195;55.790;37.572;2023-03-21T02:50:50;99265.81;;;5.79;52.04
20228;BME280;12195;55.790;37.572;2023-03-21T02:53:22;99266.73;;;5.78;51.80
20228;BME280;12195;55.790;37.572;2023-03-21T02:56:06;99273.62;;;5.79;52.09
20228;BME280;12195;55.790;37.572;2023-03-21T02:58:44;99268.54;;;5.76;52.12
20228;BME280;12195;55.790;37.572;2023-03-21T03:01:24;99259.91;;;5.76;52.09
20228;BME280;12195;55.790;37.572;2023-03-21T03:03:57;99255.58;;;5.75;52.04
20228;BME280;12195;55.790;37.572;2023-03-21T03:06:39;99261.77;;;5.72;52.34
20228;BME280;12195;55.790;37.572;2023-03-21T03:09:28;99255.73;;;5.72;52.34
20228;BME280;12195;55.790;37.572;2023-03-21T03:12:14;99249.66;;;5.71;52.08
20228;BME280;12195;55.790;37.572;2023-03-21T03:14:42;99250.52;;;5.72;52.25
20228;BME280;12195;55.790;37.572;2023-03-21T03:20:09;99241.05;;;5.69;51.94
20228;BME280;12195;55.790;37.572;2023-03-21T03:25:55;99231.77;;;5.64;52.16
20228;BME280;12195;55.790;37.572;2023-03-21T03:28:23;99232.53;;;5.66;51.97
20228;BME280;12195;55.790;37.572;2023-03-21T03:30:57;99229.93;;;5.66;51.34
20228;BME280;12195;55.790;37.572;2023-03-21T03:33:33;99229.99;;;5.64;51.44
20228;BME280;12195;55.790;37.572;2023-03-21T03:36:09;99233.45;;;5.65;51.42
20228;BME280;12195;55.790;37.572;2023-03-21T03:38:45;99229.99;;;5.64;51.69
20228;BME280;12195;55.790;37.572;2023-03-21T03:41:23;99229.17;;;5.64;51.50
20228;BME280;12195;55.790;37.572;2023-03-21T03:43:58;99231.77;;;5.64;51.85
20228;BME280;12195;55.790;37.572;2023-03-21T03:46:36;99236.77;;;5.68;51.75
20228;BME280;12195;55.790;37.572;2023-03-21T03:49:17;99231.55;;;5.68;51.49
20228;BME280;12195;55.790;37.572;2023-03-21T03:51:59;99232.41;;;5.69;51.13
20228;BME280;12195;55.790;37.572;2023-03-21T03:54:37;99224.60;;;5.69;51.62
20228;BME280;12195;55.790;37.572;2023-03-21T03:57:11;99227.97;;;5.71;51.77
20228;BME280;12195;55.790;37.572;2023-03-21T03:59:45;99235.66;;;5.74;51.87
20228;BME280;12195;55.790;37.572;2023-03-21T04:02:37;99214.19;;;5.69;51.19
20228;BME280;12195;55.790;37.572;2023-03-21T04:05:10;99225.06;;;5.78;51.20
20228;BME280;12195;55.790;37.572;2023-03-21T04:07:42;99223.28;;;5.79;51.35
20228;BME280;12195;55.790;37.572;2023-03-21T04:10:15;99222.36;;;5.80;50.96
20228;BME280;12195;55.790;37.572;2023-03-21T04:12:47;99212.83;;;5.81;51.39
20228;BME280;12195;55.790;37.572;2023-03-21T04:15:21;99213.53;;;5.84;51.50
20228;BME280;12195;55.790;37.572;2023-03-21T04:17:55;99209.88;;;5.88;50.63
20228;BME280;12195;55.790;37.572;2023-03-21T04:20:27;99213.00;;;5.96;50.49
20228;BME280;12195;55.790;37.572;2023-03-21T04:23:01;99208.65;;;5.97;50.13
20228;BME280;12195;55.790;37.572;2023-03-21T04:25:35;99211.95;;;6.00;49.84
20228;BME280;12195;55.790;37.572;2023-03-21T04:28:10;99198.80;;;6.03;50.21
20228;BME280;12195;55.790;37.572;2023-03-21T04:30:44;99205.56;;;6.07;49.60
20228;BME280;12195;55.790;37.572;2023-03-21T04:33:19;99205.56;;;6.07;49.40
20228;BME280;12195;55.790;37.572;2023-03-21T04:35:53;99207.81;;;6.15;49.76
20228;BME280;12195;55.790;37.572;2023-03-21T04:38:30;99208.48;;;6.20;49.50
20228;BME280;12195;55.790;37.572;2023-03-21T04:41:05;99205.65;;;6.24;49.42
20228;BME280;12195;55.790;37.572;2023-03-21T04:43:37;99213.05;;;6.33;48.86
20228;BME280;12195;55.790;37.572;2023-03-21T04:46:10;99214.47;;;6.40;48.82
20228;BME280;12195;55.790;37.572;2023-03-21T04:48:42;99214.20;;;6.46;48.49
20228;BME280;12195;55.790;37.572;2023-03-21T04:51:14;99214.59;;;6.56;48.48
20228;BME280;12195;55.790;37.572;2023-03-21T04:53:47;99199.51;;;6.62;48.02
20228;BME280;12195;55.790;37.572;2023-03-21T04:56:21;99207.00;;;6.70;47.73
20228;BME280;12195;55.790;37.572;2023-03-21T04:58:54;99211.91;;;6.76;47.78
20228;BME280;12195;55.790;37.572;2023-03-21T05:01:27;99210.64;;;6.84;47.60
20228;BME280;12195;55.790;37.572;2023-03-21T05:04:03;99206.90;;;6.90;47.34
20228;BME280;12195;55.790;37.572;2023-03-21T05:06:36;99210.06;;;6.96;47.22
20228;BME280;12195;55.790;37.572;2023-03-21T05:09:09;99206.45;;;6.99;47.07
20228;BME280;12195;55.790;37.572;2023-03-21T05:11:41;99202.16;;;6.98;46.56
20228;BME280;12195;55.790;37.572;2023-03-21T05:14:18;99210.06;;;6.96;47.20
20228;BME280;12195;55.790;37.572;2023-03-21T05:16:50;99210.20;;;6.93;46.68
20228;BME280;12195;55.790;37.572;2023-03-21T05:19:29;99203.44;;;6.89;47.19
20228;BME280;12195;55.790;37.572;2023-03-21T05:22:10;99205.28;;;6.87;47.21
20228;BME280;12195;55.790;37.572;2023-03-21T05:24:44;99207.11;;;6.85;46.84
20228;BME280;12195;55.790;37.572;2023-03-21T05:27:25;99207.17;;;6.84;46.86
20228;BME280;12195;55.790;37.572;2023-03-21T05:30:16;99208.17;;;6.81;47.16
20228;BME280;12195;55.790;37.572;2023-03-21T05:32:50;99205.70;;;6.78;47.16
20228;BME280;12195;55.790;37.572;2023-03-21T05:35:23;99207.48;;;6.78;47.51
20228;BME280;12195;55.790;37.572;2023-03-21T05:37:57;99206.55;;;6.79;47.46
20228;BME280;12195;55.790;37.572;2023-03-21T05:40:32;99198.42;;;6.85;47.51
20228;BME280;12195;55.790;37.572;2023-03-21T05:43:05;99210.13;;;6.95;47.69
20228;BME280;12195;55.790;37.572;2023-03-21T05:45:49;99202.77;;;7.03;48.03
20228;BME280;12195;55.790;37.572;2023-03-21T05:48:23;99203.11;;;7.14;47.47
20228;BME280;12195;55.790;37.572;2023-03-21T05:51:03;99199.97;;;7.24;47.30
20228;BME280;12195;55.790;37.572;2023-03-21T05:53:36;99202.05;;;7.35;47.12
20228;BME280;12195;55.790;37.572;2023-03-21T05:56:09;99198.11;;;7.43;47.02
20228;BME280;12195;55.790;37.572;2023-03-21T05:58:43;99203.73;;;7.53;47.32
20228;BME280;12195;55.790;37.572;2023-03-21T06:01:15;99200.64;;;7.62;47.09
20228;BME280;12195;55.790;37.572;2023-03-21T06:03:49;99205.58;;;7.68;47.63
20228;BME280;12195;55.790;37.572;2023-03-21T06:06:34;99203.64;;;7.71;47.50
20228;BME280;12195;55.790;37.572;2023-03-21T06:09:06;99203.72;;;7.70;47.80
20228;BME280;12195;55.790;37.572;2023-03-21T06:11:43;99201.95;;;7.70;48.65
20228;BME280;12195;55.790;37.572;2023-03-21T06:14:29;99199.95;;;7.75;48.60
20228;BME280;12195;55.790;37.572;2023-03-21T06:17:14;99196.33;;;7.78;48.49
20228;BME280;12195;55.790;37.572;2023-03-21T06:19:51;99203.80;;;7.85;48.67
20228;BME280;12195;55.790;37.572;2023-03-21T06:22:29;99198.23;;;7.91;49.34
20228;BME280;12195;55.790;37.572;2023-03-21T06:25:03;99198.01;;;7.96;48.91
20228;BME280;12195;55.790;37.572;2023-03-21T06:27:37;99199.69;;;7.97;48.84
20228;BME280;12195;55.790;37.572;2023-03-21T06:30:10;99192.86;;;7.94;49.47
20228;BME280;12195;55.790;37.572;2023-03-21T06:32:44;99189.91;;;8.00;50.73
20228;BME280;12195;55.790;37.572;2023-03-21T06:35:18;99188.59;;;8.09;49.53
20228;BME280;12195;55.790;37.572;2023-03-21T06:37:51;99183.49;;;8.23;49.84
20228;BME280;12195;55.790;37.572;2023-03-21T06:40:23;99177.76;;;8.32;49.49
20228;BME280;12195;55.790;37.572;2023-03-21T06:42:57;99173.81;;;8.40;49.20
20228;BME280;12195;55.790;37.572;2023-03-21T06:45:29;99176.86;;;8.48;49.32
20228;BME280;12195;55.790;37.572;2023-03-21T06:48:02;99173.73;;;8.57;49.46
20228;BME280;12195;55.790;37.572;2023-03-21T06:50:35;99167.41;;;8.61;49.46
20228;BME280;12195;55.790;37.572;2023-03-21T06:53:08;99163.85;;;8.62;49.17
20228;BME280;12195;55.790;37.572;2023-03-21T06:55:47;99166.06;;;8.70;49.57
20228;BME280;12195;55.790;37.572;2023-03-21T06:58:17;99165.19;;;8.85;49.23
20228;BME280;12195;55.790;37.572;2023-03-21T07:00:49;99165.27;;;8.99;48.90
20228;BME280;12195;55.790;37.572;2023-03-21T07:03:22;99155.61;;;9.15;48.33
20228;BME280;12195;55.790;37.572;2023-03-21T07:05:54;99147.04;;;9.27;48.14
20228;BME280;12195;55.790;37.572;2023-03-21T07:08:28;99145.86;;;9.46;47.56
20228;BME280;12195;55.790;37.572;2023-03-21T07:11:00;99151.70;;;9.93;47.16
20228;BME280;12195;55.790;37.572;2023-03-21T07:13:32;99152.47;;;10.37;46.08
20228;BME280;12195;55.790;37.572;2023-03-21T07:16:07;99146.86;;;10.70;45.43
20228;BME280;12195;55.790;37.572;2023-03-21T07:18:40;99144.64;;;10.90;45.00
20228;BME280;12195;55.790;37.572;2023-03-21T07:21:13;99144.73;;;10.89;44.43
20228;BME280;12195;55.790;37.572;2023-03-21T07:23:46;99151.22;;;10.83;44.57
20228;BME280;12195;55.790;37.572;2023-03-21T07:26:20;99149.95;;;10.76;45.06
20228;BME280;12195;55.790;37.572;2023-03-21T07:28:53;99146.98;;;10.68;45.55
20228;BME280;12195;55.790;37.572;2023-03-21T07:31:27;99146.53;;;10.62;46.68
20228;BME280;12195;55.790;37.572;2023-03-21T07:34:00;99142.70;;;10.53;47.96
20228;BME280;12195;55.790;37.572;2023-03-21T07:36:33;99152.92;;;10.44;48.64
20228;BME280;12195;55.790;37.572;2023-03-21T07:39:08;99140.66;;;10.30;49.68
20228;BME280;12195;55.790;37.572;2023-03-21T07:41:41;99140.78;;;10.15;50.61
20228;BME280;12195;55.790;37.572;2023-03-21T07:44:15;99140.39;;;9.93;51.82
20228;BME280;12195;55.790;37.572;2023-03-21T07:46:47;99149.35;;;9.75;52.65
20228;BME280;12195;55.790;37.572;2023-03-21T07:49:20;99136.72;;;9.53;53.30
20228;BME280;12195;55.790;37.572;2023-03-21T07:51:53;99143.96;;;9.34;54.94
20228;BME280;12195;55.790;37.572;2023-03-21T07:54:26;99139.06;;;9.28;56.44
20228;BME280;12195;55.790;37.572;2023-03-21T07:56:59;99139.46;;;9.36;56.89
20228;BME280;12195;55.790;37.572;2023-03-21T07:59:31;99136.72;;;9.53;56.01
20228;BME280;12195;55.790;37.572;2023-03-21T08:02:03;99130.53;;;9.68;55.38
20228;BME280;12195;55.790;37.572;2023-03-21T08:04:37;99133.34;;;9.93;55.76
20228;BME280;12195;55.790;37.572;2023-03-21T08:07:10;99127.39;;;10.19;55.60
20228;BME280;12195;55.790;37.572;2023-03-21T08:09:43;99126.14;;;10.39;55.54
20228;BME280;12195;55.790;37.572;2023-03-21T08:12:15;99129.07;;;10.61;54.71
20228;BME280;12195;55.790;37.572;2023-03-21T08:14:48;99125.19;;;10.80;54.43
20228;BME280;12195;55.790;37.572;2023-03-21T08:17:20;99117.58;;;11.03;54.00
20228;BME280;12195;55.790;37.572;2023-03-21T08:19:53;99118.25;;;11.19;52.93
20228;BME280;12195;55.790;37.572;2023-03-21T08:22:25;99128.58;;;11.34;52.63
20228;BME280;12195;55.790;37.572;2023-03-21T08:24:57;99122.27;;;11.37;53.74
20228;BME280;12195;55.790;37.572;2023-03-21T08:27:30;99115.76;;;11.30;52.13
20228;BME280;12195;55.790;37.572;2023-03-21T08:30:03;99118.59;;;11.27;54.08
20228;BME280;12195;55.790;37.572;2023-03-21T08:32:35;99112.14;;;11.18;52.76
20228;BME280;12195;55.790;37.572;2023-03-21T08:35:10;99113.48;;;11.11;53.89
20228;BME280;12195;55.790;37.572;2023-03-21T08:37:43;99116.44;;;11.07;54.26
20228;BME280;12195;55.790;37.572;2023-03-21T08:40:17;99116.02;;;11.13;54.93
20228;BME280;12195;55.790;37.572;2023-03-21T08:42:50;99117.63;;;11.28;54.89
20228;BME280;12195;55.790;37.572;2023-03-21T08:45:22;99118.16;;;11.33;53.79
20228;BME280;12195;55.790;37.572;2023-03-21T08:47:55;99118.26;;;11.31;54.90
20228;BME280;12195;55.790;37.572;2023-03-21T08:50:28;99115.00;;;11.28;55.48
20228;BME280;12195;55.790;37.572;2023-03-21T08:53:01;99100.91;;;11.29;56.03
20228;BME280;12195;55.790;37.572;2023-03-21T08:55:33;99109.88;;;11.39;55.51
20228;BME280;12195;55.790;37.572;2023-03-21T08:58:06;99109.65;;;11.42;54.92
20228;BME280;12195;55.790;37.572;2023-03-21T09:00:39;99111.95;;;11.34;54.06
20228;BME280;12195;55.790;37.572;2023-03-21T09:03:11;99106.69;;;11.34;54.10
20228;BME280;12195;55.790;37.572;2023-03-21T09:05:44;99105.55;;;11.38;53.87
20228;BME280;12195;55.790;37.572;2023-03-21T09:08:16;99109.78;;;11.53;54.56
20228;BME280;12195;55.790;37.572;2023-03-21T09:10:51;99111.72;;;11.76;52.60
20228;BME280;12195;55.790;37.572;2023-03-21T09:13:24;99110.64;;;12.03;53.36
20228;BME280;12195;55.790;37.572;2023-03-21T09:15:57;99110.98;;;12.35;52.40
20228;BME280;12195;55.790;37.572;2023-03-21T09:18:30;99109.52;;;12.67;50.78
20228;BME280;12195;55.790;37.572;2023-03-21T09:21:10;99097.50;;;12.99;50.98
20228;BME280;12195;55.790;37.572;2023-03-21T09:23:44;99099.03;;;13.25;51.35
20228;BME280;12195;55.790;37.572;2023-03-21T09:26:17;99097.99;;;13.38;48.21
20228;BME280;12195;55.790;37.572;2023-03-21T09:28:50;99096.50;;;13.23;49.19
20228;BME280;12195;55.790;37.572;2023-03-21T09:31:23;99109.50;;;13.03;48.93
20228;BME280;12195;55.790;37.572;2023-03-21T09:33:55;99091.86;;;12.80;48.33
20228;BME280;12195;55.790;37.572;2023-03-21T09:36:28;99098.48;;;12.62;48.84
20228;BME280;12195;55.790;37.572;2023-03-21T09:39:01;99092.94;;;12.54;50.32
20228;BME280;12195;55.790;37.572;2023-03-21T09:41:49;99098.70;;;12.59;49.90
20228;BME280;12195;55.790;37.572;2023-03-21T09:44:44;99085.21;;;12.63;49.79
20228;BME280;12195;55.790;37.572;2023-03-21T09:47:19;99074.82;;;12.73;48.72
20228;BME280;12195;55.790;37.572;2023-03-21T09:50:09;99080.37;;;12.81;49.01
20228;BME280;12195;55.790;37.572;2023-03-21T09:55:32;99077.08;;;12.90;48.47
20228;BME280;12195;55.790;37.572;2023-03-21T09:58:46;99063.77;;;12.91;48.60
20228;BME280;12195;55.790;37.572;2023-03-21T10:01:16;99065.77;;;13.00;49.70
20228;BME280;12195;55.790;37.572;2023-03-21T10:04:07;99059.44;;;13.14;47.55
20228;BME280;12195;55.790;37.572;2023-03-21T10:06:39;99061.16;;;13.26;47.84
20228;BME280;12195;55.790;37.572;2023-03-21T10:09:18;99063.98;;;13.68;47.53
20228;BME280;12195;55.790;37.572;2023-03-21T10:12:03;99044.43;;;13.49;46.90
20228;BME280;12195;55.790;37.572;2023-03-21T10:14:43;99048.40;;;13.54;47.71
20228;BME280;12195;55.790;37.572;2023-03-21T10:17:32;99047.91;;;13.60;45.88
20228;BME280;12195;55.790;37.572;2023-03-21T10:22:51;99042.42;;;13.74;45.46
20228;BME280;12195;55.790;37.572;2023-03-21T10:25:33;99039.89;;;13.73;46.53
20228;BME280;12195;55.790;37.572;2023-03-21T10:28:08;99037.48;;;13.70;45.96
20228;BME280;12195;55.790;37.572;2023-03-21T10:30:41;99029.08;;;13.54;46.90
20228;BME280;12195;55.790;37.572;2023-03-21T10:33:18;99044.44;;;13.71;46.21
20228;BME280;12195;55.790;37.572;2023-03-21T10:36:05;99029.26;;;13.18;46.48
20228;BME280;12195;55.790;37.572;2023-03-21T10:38:27;99026.95;;;13.02;47.60
20228;BME280;12195;55.790;37.572;2023-03-21T10:41:00;99025.17;;;13.03;46.98
20228;BME280;12195;55.790;37.572;2023-03-21T10:43:35;99025.06;;;13.15;46.10
20228;BME280;12195;55.790;37.572;2023-03-21T10:46:19;99015.52;;;13.25;47.09
20228;BME280;12195;55.790;37.572;2023-03-21T10:48:52;99012.14;;;13.12;46.02
20228;BME280;12195;55.790;37.572;2023-03-21T10:51:27;99015.03;;;12.97;46.67
20228;BME280;12195;55.790;37.572;2023-03-21T10:54:06;99024.49;;;12.88;46.50
20228;BME280;12195;55.790;37.572;2023-03-21T10:56:42;99022.77;;;12.76;46.05
20228;BME280;12195;55.790;37.572;2023-03-21T10:59:19;99018.52;;;12.63;47.02
20228;BME280;12195;55.790;37.572;2023-03-21T11:01:55;99010.52;;;12.41;45.87
20228;BME280;12195;55.790;37.572;2023-03-21T11:04:27;99028.30;;;12.14;47.09
20228;BME280;12195;55.790;37.572;2023-03-21T11:07:05;99026.81;;;12.22;46.48
20228;BME280;12195;55.790;37.572;2023-03-21T11:09:55;99016.63;;;11.69;47.80
20228;BME280;12195;55.790;37.572;2023-03-21T11:12:36;99016.50;;;11.58;47.84
20228;BME280;12195;55.790;37.572;2023-03-21T11:18:12;99018.92;;;11.74;47.61
20228;BME280;12195;55.790;37.572;2023-03-21T11:20:40;99013.39;;;12.02;46.86
20228;BME280;12195;55.790;37.572;2023-03-21T11:23:12;99013.97;;;12.18;46.34
20228;BME280;12195;55.790;37.572;2023-03-21T11:25:46;99002.98;;;12.24;47.09
20228;BME280;12195;55.790;37.572;2023-03-21T11:28:21;99007.75;;;12.19;47.24
20228;BME280;12195;55.790;37.572;2023-03-21T11:30:56;99007.81;;;12.06;46.66
20228;BME280;12195;55.790;37.572;2023-03-21T11:33:41;98996.35;;;11.95;46.35
20228;BME280;12195;55.790;37.572;2023-03-21T11:38:57;99004.25;;;11.95;43.49
20228;BME280;12195;55.790;37.572;2023-03-21T11:41:33;98998.92;;;11.84;43.29
20228;BME280;12195;55.790;37.572;2023-03-21T11:44:08;98998.88;;;11.96;43.29
20228;BME280;12195;55.790;37.572;2023-03-21T11:46:40;98991.14;;;12.18;42.41
20228;BME280;12195;55.790;37.572;2023-03-21T11:49:12;98985.66;;;12.45;41.39
20228;BME280;12195;55.790;37.572;2023-03-21T11:51:57;98986.42;;;12.58;39.83
20228;BME280;12195;55.790;37.572;2023-03-21T11:54:35;98989.55;;;12.63;39.42
20228;BME280;12195;55.790;37.572;2023-03-21T12:02:51;98969.19;;;12.30;40.65
20228;BME280;12195;55.790;37.572;2023-03-21T12:05:39;98966.98;;;12.24;41.18
20228;BME280;12195;55.790;37.572;2023-03-21T12:11:07;98966.81;;;12.15;41.12
20228;BME280;12195;55.790;37.572;2023-03-21T12:16:27;98962.69;;;12.23;41.04
20228;BME280;12195;55.790;37.572;2023-03-21T12:19:31;98956.25;;;12.27;40.95
20228;BME280;12195;55.790;37.572;2023-03-21T12:24:58;98952.89;;;12.60;39.56
20228;BME280;12195;55.790;37.572;2023-03-21T12:30:31;98949.34;;;12.72;37.99
20228;BME280;12195;55.790;37.572;2023-03-21T12:36:27;98944.28;;;12.58;37.47
20228;BME280;12195;55.790;37.572;2023-03-21T12:39:02;98935.64;;;12.56;37.38
20228;BME280;12195;55.790;37.572;2023-03-21T12:41:42;98940.20;;;12.99;36.36
20228;BME280;12195;55.790;37.572;2023-03-21T12:44:18;98933.75;;;14.34;35.20
20228;BME280;12195;55.790;37.572;2023-03-21T12:46:54;98920.06;;;16.20;32.17
20228;BME280;12195;55.790;37.572;2023-03-21T12:49:34;98917.29;;;17.98;28.52
20228;BME280;12195;55.790;37.572;2023-03-21T12:52:09;98914.57;;;19.79;26.16
20228;BME280;12195;55.790;37.572;2023-03-21T12:54:47;98911.63;;;21.04;24.33
20228;BME280;12195;55.790;37.572;2023-03-21T12:57:22;98900.58;;;22.39;22.54
20228;BME280;12195;55.790;37.572;2023-03-21T12:59:58;98903.66;;;22.95;22.06
20228;BME280;12195;55.790;37.572;2023-03-21T13:02:33;98895.64;;;23.10;21.54
20228;BME280;12195;55.790;37.572;2023-03-21T13:05:30;98895.89;;;23.81;20.88
20228;BME280;12195;55.790;37.572;2023-03-21T13:08:06;98892.75;;;24.63;20.08
20228;BME280;12195;55.790;37.572;2023-03-21T13:10:38;98900.43;;;25.42;19.14
20228;BME280;12195;55.790;37.572;2023-03-21T13:16:28;98881.73;;;26.02;18.40
20228;BME280;12195;55.790;37.572;2023-03-21T13:21:50;98894.16;;;26.70;17.88
20228;BME280;12195;55.790;37.572;2023-03-21T13:24:37;98888.36;;;27.05;17.18
20228;BME280;12195;55.790;37.572;2023-03-21T13:29:52;98890.33;;;27.81;16.64
20228;BME280;12195;55.790;37.572;2023-03-21T13:38:09;98879.98;;;28.84;15.84
20228;BME280;12195;55.790;37.572;2023-03-21T13:43:50;98867.95;;;29.11;15.26
20228;BME280;12195;55.790;37.572;2023-03-21T13:49:24;98875.91;;;28.75;15.30
20228;BME280;12195;55.790;37.572;2023-03-21T13:51:52;98878.14;;;28.16;15.75
20228;BME280;12195;55.790;37.572;2023-03-21T13:54:49;98876.53;;;27.26;16.30
20228;BME280;12195;55.790;37.572;2023-03-21T14:00:21;98875.56;;;23.43;19.66
20228;BME280;12195;55.790;37.572;2023-03-21T14:03:00;98876.58;;;22.00;21.00
20228;BME280;12195;55.790;37.572;2023-03-21T14:05:33;98868.13;;;21.42;21.48
20228;BME280;12195;55.790;37.572;2023-03-21T14:08:09;98876.88;;;21.28;22.17
20228;BME280;12195;55.790;37.572;2023-03-21T14:10:47;98863.91;;;21.56;21.23
20228;BME280;12195;55.790;37.572;2023-03-21T14:13:22;98858.16;;;21.75;20.91
20228;BME280;12195;55.790;37.572;2023-03-21T14:15:59;98857.87;;;21.07;21.72
20228;BME280;12195;55.790;37.572;2023-03-21T14:18:43;98866.75;;;20.27;22.63
20228;BME280;12195;55.790;37.572;2023-03-21T14:21:22;98881.02;;;18.76;24.23
20228;BME280;12195;55.790;37.572;2023-03-21T14:24:06;98876.98;;;17.58;25.87
20228;BME280;12195;55.790;37.572;2023-03-21T14:26:44;98861.02;;;15.61;28.54
20228;BME280;12195;55.790;37.572;2023-03-21T14:29:30;98861.02;;;15.61;28.54
20228;BME280;12195;55.790;37.572;2023-03-21T14:32:04;98882.59;;;14.55;30.39
20228;BME280;12195;55.790;37.572;2023-03-21T14:34:36;98882.59;;;14.55;30.39
20228;BME280;12195;55.790;37.572;2023-03-21T14:37:11;98885.28;;;14.24;31.11
20228;BME280;12195;55.790;37.572;2023-03-21T14:39:43;98889.22;;;13.87;31.85
20228;BME280;12195;55.790;37.572;2023-03-21T14:42:15;98884.62;;;13.57;31.85
20228;BME280;12195;55.790;37.572;2023-03-21T14:44:50;98886.33;;;13.25;32.41
20228;BME280;12195;55.790;37.572;2023-03-21T14:47:26;98885.97;;;13.08;32.33
20228;BME280;12195;55.790;37.572;2023-03-21T14:49:59;98889.49;;;12.85;33.17
20228;BME280;12195;55.790;37.572;2023-03-21T14:52:32;98882.05;;;12.68;33.61
20228;BME280;12195;55.790;37.572;2023-03-21T14:55:11;98886.91;;;12.50;34.27
20228;BME280;12195;55.790;37.572;2023-03-21T14:57:41;98882.19;;;12.32;34.46